Time;durP1;ratioP1;P1;durP2;ratioP2;P2;SDS_P1;SDS_P2;PMS_P1;PMS_P2;Temp;Humidity;BMP_temperature;BMP_pressure;BME280_temperature;BME280_humidity;BME280_pressure;Samples;Min_cycle;Max_cycle;Signal;HPM_P1;HPM_P2
2022/11/20 00:00:52;;;;;;;7.60;5.77;;;;;;;;;;4931897;28;20446;-57
2022/11/20 00:03:18;;;;;;;10.60;6.27;;;;;;;;;;4961339;28;20800;-55
2022/11/20 00:05:44;;;;;;;7.00;5.67;;;;;;;;;;4958691;28;21198;-55
2022/11/20 00:08:10;;;;;;;6.77;4.63;;;;;;;;;;4960478;28;21176;-56
2022/11/20 00:10:37;;;;;;;7.00;5.53;;;;;;;;;;4957103;28;20442;-56
2022/11/20 00:13:03;;;;;;;8.87;5.93;;;;;;;;;;4966497;28;20513;-55
2022/11/20 00:15:29;;;;;;;6.73;4.43;;;;;;;;;;4959683;28;20466;-56
2022/11/20 00:17:55;;;;;;;6.03;4.27;;;;;;;;;;4967616;28;20434;-55
2022/11/20 00:20:21;;;;;;;9.67;4.67;;;;;;;;;;4945616;28;20480;-56
2022/11/20 00:22:46;;;;;;;5.67;4.07;;;;;;;;;;4960142;28;20970;-55
2022/11/20 00:25:12;;;;;;;7.53;5.00;;;;;;;;;;4930671;28;20461;-55
2022/11/20 00:27:39;;;;;;;8.13;4.97;;;;;;;;;;4948946;28;20528;-55
2022/11/20 00:30:05;;;;;;;5.57;3.97;;;;;;;;;;4953603;28;21260;-56
2022/11/20 00:32:31;;;;;;;6.93;3.60;;;;;;;;;;4948033;28;20469;-56
2022/11/20 00:34:57;;;;;;;4.20;3.70;;;;;;;;;;4952187;28;20941;-55
2022/11/20 00:37:23;;;;;;;5.40;4.27;;;;;;;;;;4952789;28;20446;-55
2022/11/20 00:39:49;;;;;;;5.00;3.67;;;;;;;;;;4958999;28;20493;-55
2022/11/20 00:42:15;;;;;;;6.33;4.17;;;;;;;;;;4942360;28;20446;-55
2022/11/20 00:44:41;;;;;;;6.70;3.93;;;;;;;;;;4962727;28;20429;-54
2022/11/20 00:47:07;;;;;;;4.63;3.20;;;;;;;;;;4958085;28;20813;-54
2022/11/20 00:49:33;;;;;;;3.30;2.50;;;;;;;;;;4959664;28;20442;-54
2022/11/20 00:51:59;;;;;;;3.50;3.20;;;;;;;;;;4938917;28;20460;-55
2022/11/20 00:54:25;;;;;;;4.30;3.00;;;;;;;;;;4961392;28;20442;-54
2022/11/20 00:56:53;;;;;;;4.30;2.87;;;;;;;;;;4921457;28;20464;-54
2022/11/20 00:59:19;;;;;;;3.60;3.20;;;;;;;;;;4928884;28;20481;-53
2022/11/20 01:01:45;;;;;;;3.03;2.60;;;;;;;;;;4935030;28;20603;-54
2022/11/20 01:04:11;;;;;;;4.30;3.20;;;;;;;;;;4960503;28;20422;-56
2022/11/20 01:06:37;;;;;;;5.17;3.10;;;;;;;;;;4939843;28;20485;-54
2022/11/20 01:09:05;;;;;;;3.53;2.20;;;;;;;;;;4963932;28;20462;-57
2022/11/20 01:11:31;;;;;;;3.80;2.73;;;;;;;;;;4955450;28;20504;-58
2022/11/20 01:13:58;;;;;;;3.23;2.93;;;;;;;;;;4964276;28;20469;-56
2022/11/20 01:16:25;;;;;;;6.10;3.87;;;;;;;;;;4940432;28;20445;-55
2022/11/20 01:18:51;;;;;;;4.87;2.80;;;;;;;;;;4966576;28;20434;-56
2022/11/20 01:21:18;;;;;;;3.70;2.57;;;;;;;;;;4921618;28;20465;-56
2022/11/20 01:23:44;;;;;;;4.63;3.00;;;;;;;;;;4946491;28;20500;-56
2022/11/20 01:26:12;;;;;;;3.40;2.57;;;;;;;;;;4923342;28;20817;-54
2022/11/20 01:28:38;;;;;;;4.30;2.93;;;;;;;;;;4955575;28;20445;-54
2022/11/20 01:31:11;;;;;;;3.30;3.00;;;;;;;;;;4941303;28;21011;-56
2022/11/20 01:33:37;;;;;;;3.43;2.60;;;;;;;;;;4967580;28;20497;-56
2022/11/20 01:36:05;;;;;;;3.80;2.60;;;;;;;;;;4960574;28;20453;-57
2022/11/20 01:38:31;;;;;;;5.27;3.40;;;;;;;;;;4961992;28;20437;-58
2022/11/20 01:40:57;;;;;;;5.27;3.00;;;;;;;;;;4949757;28;20622;-56
2022/11/20 01:43:23;;;;;;;3.83;2.87;;;;;;;;;;4951600;28;20453;-55
2022/11/20 01:45:48;;;;;;;3.00;2.70;;;;;;;;;;4961885;28;20429;-57
2022/11/20 01:48:14;;;;;;;4.03;2.77;;;;;;;;;;4962406;28;20450;-55
2022/11/20 01:50:40;;;;;;;3.83;2.50;;;;;;;;;;4941234;28;20523;-56
2022/11/20 01:53:08;;;;;;;3.93;2.87;;;;;;;;;;4924010;28;20504;-56
2022/11/20 01:55:37;;;;;;;2.47;2.20;;;;;;;;;;4955373;28;20441;-55
2022/11/20 01:58:03;;;;;;;2.60;2.13;;;;;;;;;;4960369;28;20430;-56
2022/11/20 02:00:29;;;;;;;3.00;2.70;;;;;;;;;;4915783;28;20958;-55
2022/11/20 02:02:57;;;;;;;12.10;2.80;;;;;;;;;;4959221;28;20430;-57
2022/11/20 02:05:28;;;;;;;3.43;2.33;;;;;;;;;;4921656;28;20483;-55
2022/11/20 02:07:54;;;;;;;5.57;2.70;;;;;;;;;;4956643;28;20492;-56
2022/11/20 02:10:20;;;;;;;2.10;1.80;;;;;;;;;;4950996;28;20483;-55
2022/11/20 02:15:30;;;;;;;3.30;2.43;;;;;;;;;;4938617;28;20469;-56
2022/11/20 02:17:56;;;;;;;3.50;2.60;;;;;;;;;;4965265;28;20465;-55
2022/11/20 02:20:22;;;;;;;2.53;2.27;;;;;;;;;;4963752;28;21275;-55
2022/11/20 02:22:51;;;;;;;2.93;2.47;;;;;;;;;;4949676;28;20552;-56
2022/11/20 02:25:17;;;;;;;3.13;2.70;;;;;;;;;;4925246;28;20460;-56
2022/11/20 02:27:43;;;;;;;3.83;3.07;;;;;;;;;;4951621;28;20867;-55
2022/11/20 02:30:10;;;;;;;3.33;2.33;;;;;;;;;;4963890;28;20425;-56
2022/11/20 02:32:37;;;;;;;4.20;2.80;;;;;;;;;;4949733;28;20441;-54
2022/11/20 02:35:10;;;;;;;3.47;3.00;;;;;;;;;;4921551;28;20461;-55
2022/11/20 02:37:36;;;;;;;3.27;2.77;;;;;;;;;;4965416;28;20491;-55
2022/11/20 02:40:02;;;;;;;3.90;2.57;;;;;;;;;;4959385;28;20592;-55
2022/11/20 02:42:28;;;;;;;5.60;2.83;;;;;;;;;;4963417;28;20568;-57
2022/11/20 02:44:54;;;;;;;3.80;2.50;;;;;;;;;;4932775;28;20442;-54
2022/11/20 02:47:20;;;;;;;3.67;2.73;;;;;;;;;;4961969;28;20477;-55
2022/11/20 02:49:46;;;;;;;4.00;3.00;;;;;;;;;;4964350;28;20453;-55
2022/11/20 02:52:12;;;;;;;3.97;2.70;;;;;;;;;;4960825;28;20445;-55
2022/11/20 02:54:38;;;;;;;3.23;2.57;;;;;;;;;;4943531;28;20433;-56
2022/11/20 02:57:04;;;;;;;2.70;2.30;;;;;;;;;;4960377;28;20501;-55
2022/11/20 02:59:30;;;;;;;3.13;2.83;;;;;;;;;;4959446;28;20441;-56
2022/11/20 03:01:56;;;;;;;3.73;2.53;;;;;;;;;;4942376;28;20557;-56
2022/11/20 03:04:22;;;;;;;3.77;2.40;;;;;;;;;;4936249;28;21154;-59
2022/11/20 03:06:48;;;;;;;2.70;2.30;;;;;;;;;;4954156;28;20721;-55
2022/11/20 03:09:14;;;;;;;3.90;2.27;;;;;;;;;;4962675;28;21222;-55
2022/11/20 03:11:40;;;;;;;3.07;2.53;;;;;;;;;;4955747;28;20809;-54
2022/11/20 03:14:06;;;;;;;5.30;2.73;;;;;;;;;;4960573;28;20437;-58
2022/11/20 03:16:32;;;;;;;2.90;2.70;;;;;;;;;;4961624;28;20528;-55
2022/11/20 03:18:58;;;;;;;3.03;2.50;;;;;;;;;;4960089;28;20449;-55
2022/11/20 03:21:24;;;;;;;3.77;2.70;;;;;;;;;;4942099;28;20541;-57
2022/11/20 03:23:50;;;;;;;3.80;3.03;;;;;;;;;;4969569;28;20446;-54
2022/11/20 03:26:16;;;;;;;2.97;2.60;;;;;;;;;;4941327;28;20466;-55
2022/11/20 03:28:43;;;;;;;3.80;2.77;;;;;;;;;;4969200;28;20437;-55
2022/11/20 03:31:10;;;;;;;3.60;2.97;;;;;;;;;;4944809;28;20453;-55
2022/11/20 03:33:36;;;;;;;2.80;2.20;;;;;;;;;;4947698;28;20628;-55
2022/11/20 03:36:02;;;;;;;4.50;2.60;;;;;;;;;;4922362;28;20467;-62
2022/11/20 03:38:31;;;;;;;3.23;2.57;;;;;;;;;;4968360;28;20449;-55
2022/11/20 03:41:04;;;;;;;3.20;2.87;;;;;;;;;;4959572;28;20438;-54
2022/11/20 03:43:30;;;;;;;3.63;3.17;;;;;;;;;;4960672;28;20449;-55
2022/11/20 03:45:56;;;;;;;3.90;3.17;;;;;;;;;;4965454;28;20453;-54
2022/11/20 03:48:22;;;;;;;3.47;2.77;;;;;;;;;;4966978;28;20435;-53
2022/11/20 03:50:48;;;;;;;4.43;3.30;;;;;;;;;;4939694;28;20499;-55
2022/11/20 03:53:15;;;;;;;4.80;3.50;;;;;;;;;;4941346;28;20541;-54
2022/11/20 03:55:41;;;;;;;4.10;3.50;;;;;;;;;;4960911;28;20981;-55
2022/11/20 03:58:07;;;;;;;3.80;3.50;;;;;;;;;;4963588;28;20615;-55
2022/11/20 04:00:33;;;;;;;3.77;3.47;;;;;;;;;;4963170;28;20446;-56
2022/11/20 04:02:59;;;;;;;4.80;3.40;;;;;;;;;;4940976;28;20437;-54
2022/11/20 04:05:25;;;;;;;3.83;3.20;;;;;;;;;;4965050;28;20442;-54
2022/11/20 04:07:51;;;;;;;3.60;3.00;;;;;;;;;;4922154;28;20493;-54
2022/11/20 04:10:17;;;;;;;3.73;3.17;;;;;;;;;;4965150;28;20447;-56
2022/11/20 04:12:43;;;;;;;4.10;3.30;;;;;;;;;;4937787;28;20440;-55
2022/11/20 04:15:09;;;;;;;10.40;3.80;;;;;;;;;;4962610;28;20452;-54
2022/11/20 04:17:35;;;;;;;2.97;2.73;;;;;;;;;;4962777;28;20450;-55
2022/11/20 04:20:01;;;;;;;3.70;3.17;;;;;;;;;;4966577;28;20449;-55
2022/11/20 04:22:27;;;;;;;4.53;2.93;;;;;;;;;;4938212;28;20480;-54
2022/11/20 04:24:53;;;;;;;4.70;3.70;;;;;;;;;;4968241;28;20427;-54
2022/11/20 04:27:19;;;;;;;6.17;3.47;;;;;;;;;;4957777;28;20469;-55
2022/11/20 04:29:45;;;;;;;3.90;3.30;;;;;;;;;;4971489;28;20446;-55
2022/11/20 04:32:11;;;;;;;4.07;3.67;;;;;;;;;;4942353;28;20468;-55
2022/11/20 04:34:37;;;;;;;3.93;3.07;;;;;;;;;;4964956;28;20434;-56
2022/11/20 04:37:03;;;;;;;4.83;3.60;;;;;;;;;;4927707;28;20517;-54
2022/11/20 04:39:29;;;;;;;3.83;3.43;;;;;;;;;;4954517;28;21251;-54
2022/11/20 04:44:40;;;;;;;4.27;2.63;;;;;;;;;;4963425;28;20507;-54
2022/11/20 04:47:06;;;;;;;3.13;2.80;;;;;;;;;;4955972;28;20489;-54
2022/11/20 04:49:33;;;;;;;3.90;3.10;;;;;;;;;;4961939;28;20511;-53
2022/11/20 04:51:59;;;;;;;3.13;2.83;;;;;;;;;;4963292;28;20532;-54
2022/11/20 04:54:25;;;;;;;5.40;3.40;;;;;;;;;;4964968;28;20517;-54
2022/11/20 04:56:51;;;;;;;3.67;3.10;;;;;;;;;;4949064;28;20508;-55
2022/11/20 04:59:17;;;;;;;5.67;3.30;;;;;;;;;;4954567;28;20429;-54
2022/11/20 05:01:43;;;;;;;4.37;2.90;;;;;;;;;;4954497;28;20477;-56
2022/11/20 05:04:09;;;;;;;4.00;3.20;;;;;;;;;;4954341;28;20492;-54
2022/11/20 05:06:35;;;;;;;3.57;2.60;;;;;;;;;;4961337;28;20505;-55
2022/11/20 05:09:02;;;;;;;4.53;3.20;;;;;;;;;;4945884;28;20458;-55
2022/11/20 05:11:30;;;;;;;5.13;3.20;;;;;;;;;;4956125;28;20968;-57
2022/11/20 05:13:58;;;;;;;4.13;2.90;;;;;;;;;;4914639;28;21101;-54
2022/11/20 05:16:24;;;;;;;3.67;2.70;;;;;;;;;;4946466;28;20480;-55
2022/11/20 05:18:50;;;;;;;3.60;2.83;;;;;;;;;;4943634;28;20733;-54
2022/11/20 05:21:16;;;;;;;3.97;2.67;;;;;;;;;;4961614;28;20441;-55
2022/11/20 05:23:42;;;;;;;4.70;3.27;;;;;;;;;;4937996;28;20452;-54
2022/11/20 05:26:11;;;;;;;3.90;3.23;;;;;;;;;;4960108;28;20442;-54
2022/11/20 05:28:37;;;;;;;5.20;2.30;;;;;;;;;;4942500;28;20460;-54
2022/11/20 05:31:13;;;;;;;4.80;2.90;;;;;;;;;;4965695;28;20430;-54
2022/11/20 05:33:42;;;;;;;4.60;2.80;;;;;;;;;;4935942;28;20442;-54
2022/11/20 05:36:09;;;;;;;3.60;2.60;;;;;;;;;;4965495;28;20445;-54
2022/11/20 05:38:35;;;;;;;3.20;2.60;;;;;;;;;;4959614;28;20445;-54
2022/11/20 05:41:07;;;;;;;4.43;2.77;;;;;;;;;;4954628;28;20562;-55
2022/11/20 05:43:34;;;;;;;3.03;2.53;;;;;;;;;;4915454;28;20485;-54
2022/11/20 05:46:00;;;;;;;2.40;2.17;;;;;;;;;;4958088;28;20793;-54
2022/11/20 05:48:26;;;;;;;2.90;2.20;;;;;;;;;;4957024;28;20477;-55
2022/11/20 05:50:52;;;;;;;2.70;2.50;;;;;;;;;;4954846;28;20496;-55
2022/11/20 05:53:18;;;;;;;3.80;2.70;;;;;;;;;;4937700;28;20449;-56
2022/11/20 05:55:44;;;;;;;3.80;3.07;;;;;;;;;;4965980;28;20453;-55
2022/11/20 05:58:10;;;;;;;3.50;2.67;;;;;;;;;;4963216;28;20450;-55
2022/11/20 06:00:36;;;;;;;2.67;2.17;;;;;;;;;;4966316;28;20544;-54
2022/11/20 06:03:02;;;;;;;2.70;2.50;;;;;;;;;;4940402;28;20445;-55
2022/11/20 06:05:28;;;;;;;5.30;3.30;;;;;;;;;;4964999;28;20438;-57
2022/11/20 06:07:54;;;;;;;3.53;2.80;;;;;;;;;;4961186;28;20532;-55
2022/11/20 06:10:20;;;;;;;2.60;2.30;;;;;;;;;;4967212;28;20545;-55
2022/11/20 06:12:46;;;;;;;2.83;2.63;;;;;;;;;;4918713;28;20552;-55
2022/11/20 06:15:12;;;;;;;4.63;2.80;;;;;;;;;;4964348;28;20442;-56
2022/11/20 06:17:38;;;;;;;3.90;2.23;;;;;;;;;;4964218;28;20429;-59
2022/11/20 06:20:04;;;;;;;3.03;2.37;;;;;;;;;;4963810;28;20541;-55
2022/11/20 06:22:30;;;;;;;2.93;2.60;;;;;;;;;;4944876;28;20438;-55
2022/11/20 06:24:56;;;;;;;4.23;2.60;;;;;;;;;;4965152;28;20503;-57
2022/11/20 06:27:22;;;;;;;3.03;2.27;;;;;;;;;;4957209;28;20543;-57
2022/11/20 06:29:48;;;;;;;5.87;2.83;;;;;;;;;;4964465;28;20521;-57
2022/11/20 06:32:13;;;;;;;2.70;2.30;;;;;;;;;;4942854;28;20478;-57
2022/11/20 06:34:39;;;;;;;6.80;2.37;;;;;;;;;;4965409;28;20456;-56
2022/11/20 06:37:05;;;;;;;3.17;2.30;;;;;;;;;;4943485;28;20544;-61
2022/11/20 06:39:31;;;;;;;2.50;2.03;;;;;;;;;;4960845;28;20496;-56
2022/11/20 06:41:57;;;;;;;2.70;2.40;;;;;;;;;;4959782;28;20444;-57
2022/11/20 06:44:23;;;;;;;2.50;2.30;;;;;;;;;;4968048;28;20438;-57
2022/11/20 06:46:49;;;;;;;2.30;2.10;;;;;;;;;;4937699;28;21135;-57
2022/11/20 06:49:15;;;;;;;2.93;2.10;;;;;;;;;;4949924;28;20454;-57
2022/11/20 06:51:41;;;;;;;4.37;2.30;;;;;;;;;;4961496;28;21015;-55
2022/11/20 06:54:07;;;;;;;4.43;2.87;;;;;;;;;;4951041;28;20895;-58
2022/11/20 06:56:33;;;;;;;4.57;2.90;;;;;;;;;;4964194;28;20442;-59
2022/11/20 06:58:59;;;;;;;2.40;2.20;;;;;;;;;;4964831;28;20481;-58
2022/11/20 07:01:25;;;;;;;2.50;2.20;;;;;;;;;;4951814;28;21111;-58
2022/11/20 07:03:51;;;;;;;2.27;2.07;;;;;;;;;;4958319;28;23169;-58
2022/11/20 07:06:17;;;;;;;2.77;1.73;;;;;;;;;;4964469;28;20532;-58
2022/11/20 07:08:43;;;;;;;3.00;2.10;;;;;;;;;;4964748;28;20476;-58
2022/11/20 07:11:11;;;;;;;2.97;2.43;;;;;;;;;;4962367;28;21178;-58
2022/11/20 07:13:37;;;;;;;2.60;2.03;;;;;;;;;;4930122;28;20536;-57
2022/11/20 07:16:04;;;;;;;5.47;3.10;;;;;;;;;;4929487;28;20534;-57
2022/11/20 07:18:30;;;;;;;5.90;2.43;;;;;;;;;;4969000;28;21919;-57
2022/11/20 07:20:56;;;;;;;4.23;2.80;;;;;;;;;;4922064;28;20450;-57
2022/11/20 07:23:22;;;;;;;2.50;2.07;;;;;;;;;;4941378;28;20487;-58
2022/11/20 07:25:48;;;;;;;3.57;2.63;;;;;;;;;;4965574;28;20529;-59
2022/11/20 07:28:14;;;;;;;3.13;2.63;;;;;;;;;;4942521;28;21113;-61
2022/11/20 07:30:40;;;;;;;3.20;2.33;;;;;;;;;;4966967;28;20481;-59
2022/11/20 07:33:06;;;;;;;3.50;3.20;;;;;;;;;;4941542;28;20440;-58
2022/11/20 07:35:32;;;;;;;5.33;2.23;;;;;;;;;;4967834;28;20961;-57
2022/11/20 07:37:58;;;;;;;3.50;2.70;;;;;;;;;;4961430;28;20446;-59
2022/11/20 07:40:24;;;;;;;2.67;2.00;;;;;;;;;;4964515;28;20576;-58
2022/11/20 07:42:50;;;;;;;2.37;2.17;;;;;;;;;;4944184;28;20442;-57
2022/11/20 07:45:16;;;;;;;2.80;1.60;;;;;;;;;;4962669;28;20453;-57
2022/11/20 07:47:42;;;;;;;3.10;2.47;;;;;;;;;;4967585;28;20564;-58
2022/11/20 07:50:08;;;;;;;2.80;2.03;;;;;;;;;;4962119;28;20445;-58
2022/11/20 07:52:34;;;;;;;3.27;2.00;;;;;;;;;;4923090;28;20500;-57
2022/11/20 07:55:00;;;;;;;3.47;2.20;;;;;;;;;;4916256;28;20450;-58
2022/11/20 07:57:26;;;;;;;2.47;2.20;;;;;;;;;;4963433;28;20456;-58
2022/11/20 07:59:52;;;;;;;2.50;2.23;;;;;;;;;;4946521;28;20438;-58
2022/11/20 08:02:18;;;;;;;2.70;1.83;;;;;;;;;;4925114;28;20798;-58
2022/11/20 08:04:44;;;;;;;2.53;1.83;;;;;;;;;;4964985;28;20442;-57
2022/11/20 08:07:10;;;;;;;4.07;1.97;;;;;;;;;;4937984;28;20489;-56
2022/11/20 08:09:36;;;;;;;2.63;2.33;;;;;;;;;;4965447;28;20480;-58
2022/11/20 08:14:47;;;;;;;2.80;2.33;;;;;;;;;;4959815;28;21190;-58
2022/11/20 08:17:13;;;;;;;5.53;1.60;;;;;;;;;;4932335;28;20505;-58
2022/11/20 08:19:38;;;;;;;2.27;1.93;;;;;;;;;;4961396;28;20433;-57
2022/11/20 08:22:04;;;;;;;4.77;2.13;;;;;;;;;;4962646;28;20803;-56
2022/11/20 08:24:30;;;;;;;4.63;1.80;;;;;;;;;;4957875;28;20472;-57
2022/11/20 08:27:00;;;;;;;3.03;1.93;;;;;;;;;;4908624;28;20490;-58
2022/11/20 08:29:29;;;;;;;2.47;1.60;;;;;;;;;;4963736;28;20808;-57
2022/11/20 08:31:55;;;;;;;3.50;2.53;;;;;;;;;;4937226;28;20478;-60
2022/11/20 08:34:21;;;;;;;2.23;1.50;;;;;;;;;;4953064;28;20429;-59
2022/11/20 08:36:46;;;;;;;1.70;1.50;;;;;;;;;;4944834;28;20827;-56
2022/11/20 08:39:13;;;;;;;2.80;1.70;;;;;;;;;;4947485;28;20897;-58
2022/11/20 08:41:39;;;;;;;2.43;1.60;;;;;;;;;;4945454;28;20473;-57
2022/11/20 08:44:06;;;;;;;2.37;1.60;;;;;;;;;;4957270;28;20717;-58
2022/11/20 08:46:33;;;;;;;2.73;1.27;;;;;;;;;;4961875;28;21229;-57
2022/11/20 08:48:59;;;;;;;1.80;1.37;;;;;;;;;;4953253;28;20489;-58
2022/11/20 08:51:26;;;;;;;1.73;1.40;;;;;;;;;;4943302;28;20434;-58
2022/11/20 08:53:52;;;;;;;5.73;1.70;;;;;;;;;;4950022;28;20430;-57
2022/11/20 08:56:17;;;;;;;2.40;1.37;;;;;;;;;;4931067;28;21011;-56
2022/11/20 08:58:47;;;;;;;3.23;1.30;;;;;;;;;;4956771;28;20514;-58
2022/11/20 09:01:13;;;;;;;2.57;1.30;;;;;;;;;;4930280;28;20481;-57
2022/11/20 09:03:39;;;;;;;1.67;1.10;;;;;;;;;;4962247;28;20527;-57
2022/11/20 09:06:06;;;;;;;1.43;0.97;;;;;;;;;;4937086;28;21159;-57
2022/11/20 09:08:32;;;;;;;1.83;1.47;;;;;;;;;;4963904;28;21049;-57
2022/11/20 09:10:58;;;;;;;3.63;1.30;;;;;;;;;;4956789;28;20446;-57
2022/11/20 09:13:24;;;;;;;2.23;1.47;;;;;;;;;;4930644;28;20464;-56
2022/11/20 09:15:56;;;;;;;1.50;1.20;;;;;;;;;;4953163;28;20488;-58
2022/11/20 09:18:23;;;;;;;1.10;0.70;;;;;;;;;;4955125;28;20445;-56
2022/11/20 09:20:48;;;;;;;1.23;0.97;;;;;;;;;;4943443;28;20438;-57
2022/11/20 09:23:15;;;;;;;2.10;1.37;;;;;;;;;;4933461;28;20670;-56
2022/11/20 09:25:41;;;;;;;1.47;0.90;;;;;;;;;;4956095;28;20448;-57
2022/11/20 09:28:07;;;;;;;1.63;1.23;;;;;;;;;;4951468;28;21414;-55
2022/11/20 09:30:33;;;;;;;1.27;0.90;;;;;;;;;;4960750;28;20444;-55
2022/11/20 09:33:04;;;;;;;1.60;1.17;;;;;;;;;;4922104;28;20458;-57
2022/11/20 09:35:30;;;;;;;1.80;1.30;;;;;;;;;;4967439;28;20466;-56
2022/11/20 09:37:56;;;;;;;1.80;1.10;;;;;;;;;;4932773;28;20458;-56
2022/11/20 09:40:23;;;;;;;1.30;0.93;;;;;;;;;;4931329;28;20441;-56
2022/11/20 09:43:01;;;;;;;2.30;1.10;;;;;;;;;;4963297;28;20456;-57
2022/11/20 09:45:44;;;;;;;1.47;0.90;;;;;;;;;;4940753;28;20445;-54
2022/11/20 09:48:31;;;;;;;2.20;0.87;;;;;;;;;;4943594;28;21272;-58
2022/11/20 09:51:15;;;;;;;1.23;0.77;;;;;;;;;;4923640;28;20516;-58
2022/11/20 09:53:56;;;;;;;1.50;0.77;;;;;;;;;;4940174;28;20457;-56
2022/11/20 09:56:22;;;;;;;1.00;0.67;;;;;;;;;;4938659;28;20513;-57
2022/11/20 09:58:49;;;;;;;1.40;0.90;;;;;;;;;;4923590;28;20445;-56
2022/11/20 10:01:19;;;;;;;1.03;0.73;;;;;;;;;;4939556;28;20450;-58
2022/11/20 10:03:56;;;;;;;1.40;0.87;;;;;;;;;;4905718;28;21376;-58
2022/11/20 10:06:25;;;;;;;1.30;0.70;;;;;;;;;;4960154;28;20433;-58
2022/11/20 10:09:17;;;;;;;2.60;1.37;;;;;;;;;;4948449;28;21010;-59
2022/11/20 10:12:05;;;;;;;1.20;0.70;;;;;;;;;;4937884;28;21188;-57
2022/11/20 10:14:50;;;;;;;1.20;0.80;;;;;;;;;;4924999;28;20639;-58
2022/11/20 10:17:28;;;;;;;1.00;0.80;;;;;;;;;;4961284;28;20466;-58
2022/11/20 10:19:57;;;;;;;1.30;1.00;;;;;;;;;;4935382;28;22955;-57
2022/11/20 10:22:40;;;;;;;1.60;1.07;;;;;;;;;;4960245;28;20503;-56
2022/11/20 10:25:13;;;;;;;2.90;1.20;;;;;;;;;;4931802;28;20502;-57
2022/11/20 10:27:39;;;;;;;1.50;1.07;;;;;;;;;;4948179;28;21014;-57
2022/11/20 10:30:08;;;;;;;1.17;0.70;;;;;;;;;;4958693;28;20440;-56
2022/11/20 10:32:38;;;;;;;2.03;0.90;;;;;;;;;;4964336;28;20722;-57
2022/11/20 10:35:04;;;;;;;1.20;1.00;;;;;;;;;;4920206;28;21012;-57
2022/11/20 10:37:31;;;;;;;3.20;0.90;;;;;;;;;;4966569;28;20525;-56
2022/11/20 10:40:01;;;;;;;1.47;1.10;;;;;;;;;;4905794;28;20425;-56
2022/11/20 10:42:43;;;;;;;1.60;1.00;;;;;;;;;;4954913;28;20449;-55
2022/11/20 10:45:24;;;;;;;1.90;1.10;;;;;;;;;;4946675;28;20430;-57
2022/11/20 10:47:53;;;;;;;1.27;0.80;;;;;;;;;;4953139;28;20492;-57
2022/11/20 10:50:20;;;;;;;1.37;1.00;;;;;;;;;;4928883;28;20441;-57
2022/11/20 10:52:49;;;;;;;1.60;1.00;;;;;;;;;;4937820;28;20450;-57
2022/11/20 10:55:34;;;;;;;1.90;1.10;;;;;;;;;;4929796;28;20461;-56
2022/11/20 10:58:02;;;;;;;1.27;1.00;;;;;;;;;;4963269;28;20445;-56
2022/11/20 11:00:31;;;;;;;2.90;1.17;;;;;;;;;;4928487;28;20444;-57
2022/11/20 11:03:02;;;;;;;2.60;1.57;;;;;;;;;;4951526;28;20482;-58
2022/11/20 11:05:45;;;;;;;3.10;1.80;;;;;;;;;;4959943;28;20526;-57
2022/11/20 11:08:12;;;;;;;1.90;1.03;;;;;;;;;;4946098;28;20490;-57
2022/11/20 11:10:52;;;;;;;1.60;1.10;;;;;;;;;;4882758;28;20517;-57
2022/11/20 11:13:21;;;;;;;4.23;1.43;;;;;;;;;;4943702;28;20452;-57
2022/11/20 11:15:47;;;;;;;1.57;1.27;;;;;;;;;;4921516;28;20445;-57
2022/11/20 11:18:23;;;;;;;2.27;1.20;;;;;;;;;;4914288;28;20994;-57
2022/11/20 11:20:52;;;;;;;1.40;1.00;;;;;;;;;;4957826;28;20568;-57
2022/11/20 11:23:32;;;;;;;1.90;1.03;;;;;;;;;;4927790;28;20474;-57
2022/11/20 11:25:58;;;;;;;3.63;1.43;;;;;;;;;;4953527;28;20449;-58
2022/11/20 11:28:26;;;;;;;1.57;1.27;;;;;;;;;;4931670;28;20557;-57
2022/11/20 11:30:51;;;;;;;2.20;1.93;;;;;;;;;;4952809;28;20473;-57
2022/11/20 11:33:24;;;;;;;2.20;2.00;;;;;;;;;;4930309;28;20522;-57
2022/11/20 11:35:58;;;;;;;2.10;1.53;;;;;;;;;;4955868;28;20990;-57
2022/11/20 11:38:29;;;;;;;3.63;2.50;;;;;;;;;;4958192;28;20450;-58
2022/11/20 11:40:56;;;;;;;3.00;2.30;;;;;;;;;;4965554;28;20438;-57
2022/11/20 11:46:28;;;;;;;3.33;2.70;;;;;;;;;;4931253;28;20537;-58
2022/11/20 11:58:15;;;;;;;2.07;1.40;;;;;;;;;;4855386;29;20888;-57
2022/11/20 12:00:42;;;;;;;4.00;1.40;;;;;;;;;;4911931;28;20458;-57
2022/11/20 12:03:22;;;;;;;1.50;1.00;;;;;;;;;;4941964;28;20461;-56
2022/11/20 12:55:48;;;;;;;3.07;1.93;;;;;;;;;;4914312;29;20492;-64
2022/11/20 12:58:16;;;;;;;3.47;1.17;;;;;;;;;;4925142;28;20453;-59
2022/11/20 13:00:47;;;;;;;1.50;1.10;;;;;;;;;;4938734;28;20450;-60
2022/11/20 13:03:18;;;;;;;1.60;1.10;;;;;;;;;;4938328;28;20434;-61
2022/11/20 13:05:52;;;;;;;2.63;1.03;;;;;;;;;;4944546;28;20496;-60
2022/11/20 13:08:23;;;;;;;1.30;1.00;;;;;;;;;;4949251;28;20485;-60
2022/11/20 13:10:54;;;;;;;2.10;1.10;;;;;;;;;;4912620;28;21151;-60
2022/11/20 13:13:26;;;;;;;2.90;1.53;;;;;;;;;;4940708;28;20822;-59
2022/11/20 13:15:56;;;;;;;1.20;0.87;;;;;;;;;;4913973;28;20509;-59
2022/11/20 13:18:22;;;;;;;1.50;0.77;;;;;;;;;;4944338;28;20461;-59
2022/11/20 13:20:49;;;;;;;1.33;0.83;;;;;;;;;;4916892;28;20439;-56
2022/11/20 13:23:25;;;;;;;2.50;1.00;;;;;;;;;;4955600;28;20442;-57
2022/11/20 13:25:52;;;;;;;3.20;1.10;;;;;;;;;;4952356;28;20445;-56
2022/11/20 13:28:18;;;;;;;1.20;0.80;;;;;;;;;;4960452;28;20798;-56
2022/11/20 13:30:53;;;;;;;1.70;1.10;;;;;;;;;;4936910;28;20453;-58
2022/11/20 13:33:23;;;;;;;1.53;0.73;;;;;;;;;;4938954;28;20446;-57
2022/11/20 13:35:56;;;;;;;2.10;1.30;;;;;;;;;;4924344;28;20437;-56
2022/11/20 13:38:22;;;;;;;2.30;1.60;;;;;;;;;;4959197;28;20450;-56
2022/11/20 13:40:51;;;;;;;8.43;1.53;;;;;;;;;;4931586;28;20508;-56
2022/11/20 13:43:17;;;;;;;1.70;1.00;;;;;;;;;;4947990;28;20493;-56
2022/11/20 13:45:43;;;;;;;2.30;1.70;;;;;;;;;;4932402;28;20450;-56
2022/11/20 13:48:19;;;;;;;3.10;1.13;;;;;;;;;;4958177;28;20493;-56
2022/11/20 13:50:48;;;;;;;2.03;1.10;;;;;;;;;;4950120;28;20888;-55
2022/11/20 13:53:21;;;;;;;3.63;1.73;;;;;;;;;;4962076;28;20441;-56
2022/11/20 13:55:46;;;;;;;1.70;1.20;;;;;;;;;;4914957;28;20561;-57
2022/11/20 13:58:20;;;;;;;1.30;0.90;;;;;;;;;;4961061;28;20526;-56
2022/11/20 14:00:51;;;;;;;1.80;1.07;;;;;;;;;;4931028;28;20535;-57
2022/11/20 14:03:21;;;;;;;1.50;1.10;;;;;;;;;;4937143;28;20444;-58
2022/11/20 14:05:52;;;;;;;1.70;1.10;;;;;;;;;;4926439;28;20943;-57
2022/11/20 14:08:25;;;;;;;1.53;1.00;;;;;;;;;;4931980;28;20888;-57
2022/11/20 14:10:51;;;;;;;2.40;1.00;;;;;;;;;;4935644;28;20462;-56
2022/11/20 14:13:20;;;;;;;1.40;1.03;;;;;;;;;;4923846;28;20868;-56
2022/11/20 14:15:46;;;;;;;2.90;1.43;;;;;;;;;;4919354;28;20472;-57
2022/11/20 14:18:15;;;;;;;1.80;1.63;;;;;;;;;;4963941;28;20430;-57
2022/11/20 14:20:41;;;;;;;2.03;1.23;;;;;;;;;;4931681;28;20534;-57
2022/11/20 14:23:08;;;;;;;2.20;1.30;;;;;;;;;;4959587;28;20438;-58
2022/11/20 14:25:34;;;;;;;1.70;1.17;;;;;;;;;;4904894;28;20442;-56
2022/11/20 14:28:01;;;;;;;2.13;1.77;;;;;;;;;;4961908;28;20477;-58
2022/11/20 14:30:45;;;;;;;3.10;1.93;;;;;;;;;;4962148;28;20533;-57
2022/11/20 14:33:11;;;;;;;1.93;1.20;;;;;;;;;;4965377;28;20526;-58
2022/11/20 14:35:39;;;;;;;8.40;3.57;;;;;;;;;;4916129;28;20442;-57
2022/11/20 14:38:08;;;;;;;78.53;36.40;;;;;;;;;;4959544;28;20491;-57
2022/11/20 14:40:35;;;;;;;100.47;41.60;;;;;;;;;;4913801;28;20457;-57
2022/11/20 14:43:01;;;;;;;13.37;7.10;;;;;;;;;;4939272;28;20429;-57
2022/11/20 14:45:27;;;;;;;28.87;9.43;;;;;;;;;;4938058;28;20567;-57
2022/11/20 14:47:54;;;;;;;3.50;2.37;;;;;;;;;;4962836;28;20567;-56
2022/11/20 14:50:21;;;;;;;3.40;2.03;;;;;;;;;;4922535;28;20466;-57
2022/11/20 14:52:51;;;;;;;2.13;1.50;;;;;;;;;;4960197;28;20446;-57
2022/11/20 14:55:25;;;;;;;4.83;3.10;;;;;;;;;;4912481;28;20450;-57
2022/11/20 14:57:55;;;;;;;5.57;1.80;;;;;;;;;;4959050;28;20473;-57
2022/11/20 15:00:21;;;;;;;14.07;7.07;;;;;;;;;;4931582;28;20457;-57
2022/11/20 15:02:50;;;;;;;6.77;3.93;;;;;;;;;;4952958;28;20572;-57
2022/11/20 15:05:17;;;;;;;13.27;6.87;;;;;;;;;;4938792;28;20450;-56
2022/11/20 15:07:45;;;;;;;4.80;3.30;;;;;;;;;;4957936;28;21806;-56
2022/11/20 15:16:23;;;;;;;3.80;2.50;;;;;;;;;;4948652;28;20448;-58
2022/11/20 15:46:54;;;;;;;2.40;2.00;;;;;;;;;;4959715;28;20432;-57
2022/11/20 15:59:16;;;;;;;;;;;;;;;;;;;;;
2022/11/20 16:20:06;;;;;;;3.40;2.20;;;;;;;;;;4755456;29;20895;-55
2022/11/20 17:09:34;;;;;;;4.20;2.57;;;;;;;;;;4808588;29;20594;-55
2022/11/20 17:18:33;;;;;;;3.77;2.67;;;;;;;;;;4803720;29;20557;-57
2022/11/20 17:21:03;;;;;;;2.97;2.30;;;;;;;;;;4776910;29;24017;-55
2022/11/20 17:42:57;;;;;;;3.37;2.27;;;;;;;;;;4724943;30;20500;-57
2022/11/20 17:57:52;;;;;;;5.07;3.17;;;;;;;;;;4697576;30;24415;-54
2022/11/20 18:00:19;;;;;;;4.57;3.23;;;;;;;;;;4714059;30;20461;-55
2022/11/20 18:02:45;;;;;;;3.30;2.00;;;;;;;;;;4820356;28;20481;-54
2022/11/20 18:05:11;;;;;;;3.07;1.47;;;;;;;;;;4936245;28;20461;-54
2022/11/20 18:07:40;;;;;;;3.77;2.37;;;;;;;;;;4944571;28;20850;-53
2022/11/20 18:10:06;;;;;;;4.13;2.70;;;;;;;;;;4943953;28;20972;-54
2022/11/20 18:12:32;;;;;;;3.70;2.30;;;;;;;;;;4935730;28;20466;-53
2022/11/20 18:14:58;;;;;;;10.33;2.60;;;;;;;;;;4963775;28;20441;-53
2022/11/20 18:17:24;;;;;;;2.00;1.70;;;;;;;;;;4943133;28;20578;-53
2022/11/20 18:19:50;;;;;;;4.33;1.90;;;;;;;;;;4963559;28;20449;-53
2022/11/20 18:22:16;;;;;;;7.10;4.10;;;;;;;;;;4930882;28;20450;-56
2022/11/20 18:24:42;;;;;;;2.17;1.77;;;;;;;;;;4962528;28;20446;-56